createdAt,value
2022-10-27T00:19:43.763Z,15.70
2022-10-27T00:22:10.470Z,15.70
2022-10-27T00:24:37.177Z,15.60
2022-10-27T00:27:03.949Z,15.60
2022-10-27T00:29:30.621Z,15.60
2022-10-27T00:31:57.266Z,15.60
2022-10-27T00:34:23.968Z,15.50
2022-10-27T00:36:50.681Z,15.50
2022-10-27T00:39:17.370Z,15.50
2022-10-27T00:41:45.480Z,15.50
2022-10-27T00:44:33.232Z,15.50
2022-10-27T00:47:04.266Z,15.40
2022-10-27T00:49:38.229Z,15.40
2022-10-27T00:52:10.109Z,15.40
2022-10-27T00:54:41.310Z,15.40
2022-10-27T00:57:10.266Z,15.40
2022-10-27T00:59:38.139Z,15.40
2022-10-27T01:02:06.867Z,15.30
2022-10-27T01:04:49.910Z,15.30
2022-10-27T01:07:18.609Z,15.30
2022-10-27T01:09:46.606Z,15.30
2022-10-27T01:12:13.321Z,15.30
2022-10-27T01:14:40.189Z,15.30
2022-10-27T01:17:24.244Z,15.30
2022-10-27T01:20:15.114Z,15.30
2022-10-27T01:22:52.389Z,15.30
2022-10-27T01:25:38.184Z,15.30
2022-10-27T01:28:16.942Z,15.30
2022-10-27T01:31:13.260Z,15.20
2022-10-27T01:33:58.774Z,15.20
2022-10-27T01:36:38.001Z,15.20
2022-10-27T01:39:23.788Z,15.20
2022-10-27T01:41:56.316Z,15.20
2022-10-27T01:44:28.829Z,15.20
2022-10-27T01:46:57.105Z,15.20
2022-10-27T01:49:24.026Z,15.10
2022-10-27T01:51:50.744Z,15.10
2022-10-27T01:54:20.505Z,15.10
2022-10-27T01:57:02.184Z,15.10
2022-10-27T01:59:53.846Z,15.10
2022-10-27T02:02:26.649Z,15.10
2022-10-27T02:04:58.948Z,15.00
2022-10-27T02:07:46.187Z,15.00
2022-10-27T02:10:27.600Z,15.00
2022-10-27T02:12:56.725Z,15.00
2022-10-27T02:15:51.867Z,15.00
2022-10-27T02:18:25.163Z,14.90
2022-10-27T02:20:55.864Z,14.90
2022-10-27T02:23:22.975Z,14.90
2022-10-27T02:26:03.001Z,14.90
2022-10-27T02:28:40.437Z,14.90
2022-10-27T02:31:08.917Z,14.90
2022-10-27T02:33:36.293Z,14.90
2022-10-27T02:36:03.148Z,14.90
2022-10-27T02:38:29.809Z,14.90
2022-10-27T02:40:56.524Z,14.90
2022-10-27T02:43:23.215Z,14.90
2022-10-27T02:45:49.842Z,14.90
2022-10-27T02:48:16.511Z,14.80
2022-10-27T02:50:43.239Z,14.80
2022-10-27T02:53:09.990Z,14.90
2022-10-27T02:55:36.665Z,14.80
2022-10-27T02:58:03.329Z,14.90
2022-10-27T03:00:29.970Z,14.80
2022-10-27T03:02:56.739Z,14.80
2022-10-27T03:05:23.425Z,14.80
2022-10-27T03:07:50.084Z,14.90
2022-10-27T03:10:16.846Z,14.80
2022-10-27T03:12:47.394Z,14.90
2022-10-27T03:15:14.736Z,14.90
2022-10-27T03:17:48.590Z,14.80
2022-10-27T03:20:16.575Z,14.80
2022-10-27T03:22:43.268Z,14.80
2022-10-27T03:25:11.747Z,14.80
2022-10-27T03:27:43.709Z,14.80
2022-10-27T03:30:16.284Z,14.80
2022-10-27T03:32:47.855Z,14.80
2022-10-27T03:35:15.725Z,14.80
2022-10-27T03:37:42.465Z,14.70
2022-10-27T03:40:09.672Z,14.70
2022-10-27T03:42:43.556Z,14.70
2022-10-27T03:45:11.932Z,14.70
2022-10-27T03:47:38.628Z,14.70
2022-10-27T03:50:06.302Z,14.60
2022-10-27T03:52:33.556Z,14.60
2022-10-27T03:55:00.383Z,14.60
2022-10-27T03:57:27.139Z,14.60
2022-10-27T03:59:53.771Z,14.60
2022-10-27T04:02:20.622Z,14.50
2022-10-27T04:04:47.336Z,14.50
2022-10-27T04:07:13.975Z,14.50
2022-10-27T04:09:40.651Z,14.50
2022-10-27T04:12:07.553Z,14.50
2022-10-27T04:14:34.260Z,14.50
2022-10-27T04:17:00.938Z,14.40
2022-10-27T04:19:27.563Z,14.40
2022-10-27T04:21:54.473Z,14.40
2022-10-27T04:24:21.203Z,14.30
2022-10-27T04:26:48.841Z,14.30
2022-10-27T04:29:15.533Z,14.30
2022-10-27T04:31:42.187Z,14.30
2022-10-27T04:34:08.965Z,14.30
2022-10-27T04:36:35.651Z,14.20
2022-10-27T04:39:02.304Z,14.20
2022-10-27T04:41:29.028Z,14.20
2022-10-27T04:43:55.702Z,14.20
2022-10-27T04:46:23.041Z,14.10
2022-10-27T04:48:49.665Z,14.10
2022-10-27T04:51:19.303Z,14.10
2022-10-27T04:53:48.989Z,14.10
2022-10-27T04:56:16.069Z,14.10
2022-10-27T04:58:42.989Z,14.10
2022-10-27T05:01:14.257Z,14.10
2022-10-27T05:03:41.525Z,14.10
2022-10-27T05:06:08.371Z,14.10
2022-10-27T05:08:35.038Z,14.10
2022-10-27T05:11:01.722Z,14.10
2022-10-27T05:13:28.369Z,14.00
2022-10-27T05:16:03.004Z,14.00
2022-10-27T05:18:30.515Z,14.00
2022-10-27T05:20:57.318Z,14.00
2022-10-27T05:23:24.133Z,14.00
2022-10-27T05:25:52.700Z,14.00
2022-10-27T05:28:20.084Z,14.00
2022-10-27T05:30:47.010Z,14.00
2022-10-27T05:33:14.099Z,14.00
2022-10-27T05:35:41.004Z,13.90
2022-10-27T05:38:07.948Z,13.90
2022-10-27T05:40:34.699Z,13.90
2022-10-27T05:43:03.115Z,13.90
2022-10-27T05:45:30.451Z,13.90
2022-10-27T05:48:07.765Z,13.90
2022-10-27T05:50:35.097Z,13.90
2022-10-27T05:53:02.227Z,13.90
2022-10-27T05:55:29.194Z,13.90
2022-10-27T05:57:58.351Z,14.00
2022-10-27T06:00:27.022Z,13.90
2022-10-27T06:02:57.393Z,13.90
2022-10-27T06:05:28.257Z,13.90
2022-10-27T06:07:55.415Z,13.90
2022-10-27T06:10:22.372Z,13.90
2022-10-27T06:12:49.039Z,13.90
2022-10-27T06:15:16.064Z,13.90
2022-10-27T06:17:42.800Z,13.90
2022-10-27T06:20:10.087Z,13.90
2022-10-27T06:22:36.739Z,13.90
2022-10-27T06:25:03.572Z,13.90
2022-10-27T06:27:31.344Z,13.90
2022-10-27T06:29:58.064Z,13.90
2022-10-27T06:34:52.472Z,13.90
2022-10-27T06:37:19.302Z,13.90
2022-10-27T06:39:46.750Z,13.90
2022-10-27T06:42:13.758Z,13.80
2022-10-27T06:44:40.466Z,13.80
2022-10-27T06:47:07.146Z,13.80
2022-10-27T06:49:33.831Z,13.90
2022-10-27T06:52:00.687Z,13.80
2022-10-27T06:54:27.392Z,13.80
2022-10-27T06:56:54.112Z,13.80
2022-10-27T06:59:20.832Z,13.90
2022-10-27T07:01:47.748Z,13.90
2022-10-27T07:04:14.744Z,13.90
2022-10-27T07:06:41.566Z,13.90
2022-10-27T07:09:09.892Z,13.90
2022-10-27T07:11:37.280Z,13.90
2022-10-27T07:14:04.770Z,13.90
2022-10-27T07:16:34.812Z,13.90
2022-10-27T07:19:02.402Z,13.90
2022-10-27T07:21:29.384Z,13.90
2022-10-27T07:23:56.143Z,13.90
2022-10-27T07:26:22.962Z,13.90
2022-10-27T07:28:49.642Z,14.00
2022-10-27T07:31:16.424Z,14.00
2022-10-27T07:33:43.115Z,14.00
2022-10-27T07:36:10.002Z,14.00
2022-10-27T07:38:36.770Z,14.00
2022-10-27T07:41:03.589Z,14.00
2022-10-27T07:43:30.326Z,14.00
2022-10-27T07:45:57.048Z,14.10
2022-10-27T07:48:23.760Z,14.10
2022-10-27T07:50:52.125Z,14.10
2022-10-27T07:53:19.455Z,14.10
2022-10-27T07:55:46.164Z,14.10
2022-10-27T07:58:15.493Z,14.10
2022-10-27T08:00:47.511Z,14.20
2022-10-27T08:03:17.646Z,14.20
2022-10-27T08:05:44.442Z,14.30
2022-10-27T08:08:12.084Z,14.40
2022-10-27T08:10:40.717Z,14.50
2022-10-27T08:13:08.648Z,14.70
2022-10-27T08:15:36.458Z,14.80
2022-10-27T08:18:04.217Z,15.00
2022-10-27T08:20:32.688Z,15.20
2022-10-27T08:23:01.116Z,15.30
2022-10-27T08:25:28.404Z,15.40
2022-10-27T08:27:56.074Z,15.50
2022-10-27T08:30:24.234Z,15.60
2022-10-27T08:32:55.130Z,15.70
2022-10-27T08:35:22.059Z,15.90
2022-10-27T08:37:48.858Z,16.00
2022-10-27T08:40:16.034Z,16.10
2022-10-27T08:43:03.165Z,16.20
2022-10-27T08:45:34.757Z,16.20
2022-10-27T08:48:01.919Z,16.30
2022-10-27T08:50:33.555Z,16.40
2022-10-27T08:53:05.777Z,16.50
2022-10-27T08:55:57.681Z,16.60
2022-10-27T08:58:47.901Z,16.70
2022-10-27T09:01:27.813Z,16.80
2022-10-27T09:04:18.972Z,16.90
2022-10-27T09:07:10.092Z,16.90
2022-10-27T09:09:42.740Z,17.00
2022-10-27T09:12:15.597Z,17.00
2022-10-27T09:15:14.326Z,17.00
2022-10-27T09:17:50.491Z,17.10
2022-10-27T09:20:20.263Z,17.20
2022-10-27T09:22:50.388Z,17.20
2022-10-27T09:25:20.587Z,17.30
2022-10-27T09:27:53.284Z,17.50
2022-10-27T09:30:20.735Z,17.60
2022-10-27T09:32:54.397Z,17.70
2022-10-27T09:35:25.062Z,17.90
2022-10-27T09:37:57.815Z,18.20
2022-10-27T09:40:26.113Z,18.30
2022-10-27T09:42:55.582Z,18.40
2022-10-27T09:45:24.899Z,18.70
2022-10-27T09:47:55.703Z,18.90
2022-10-27T09:51:01.205Z,19.20
2022-10-27T09:53:44.831Z,19.50
2022-10-27T09:56:38.507Z,19.80
2022-10-27T09:59:06.983Z,20.10
2022-10-27T10:01:39.665Z,20.30
2022-10-27T10:04:16.529Z,20.50
2022-10-27T10:06:43.326Z,20.60
2022-10-27T10:09:25.605Z,20.60
2022-10-27T10:12:11.431Z,20.60
2022-10-27T10:14:38.088Z,20.70
2022-10-27T10:17:04.811Z,20.80
2022-10-27T10:19:31.626Z,20.90
2022-10-27T10:22:00.346Z,21.00
2022-10-27T10:24:30.092Z,21.10
2022-10-27T10:26:59.388Z,21.20
2022-10-27T10:29:45.109Z,21.30
2022-10-27T10:32:31.189Z,21.50
2022-10-27T10:35:00.618Z,21.50
2022-10-27T10:37:32.504Z,21.60
2022-10-27T10:40:14.675Z,21.70
2022-10-27T10:42:45.530Z,21.80
2022-10-27T10:45:26.081Z,21.90
2022-10-27T10:47:59.866Z,22.10
2022-10-27T10:50:28.227Z,22.20
2022-10-27T10:52:57.670Z,22.20
2022-10-27T10:55:34.927Z,22.40
2022-10-27T10:58:02.428Z,22.50
2022-10-27T11:00:29.859Z,22.60
2022-10-27T11:03:06.187Z,22.70
2022-10-27T11:05:35.451Z,22.70
2022-10-27T11:08:04.589Z,22.70
2022-10-27T11:10:39.005Z,22.80
2022-10-27T11:13:15.471Z,22.80
2022-10-27T11:15:55.768Z,22.80
2022-10-27T11:18:29.730Z,22.90
2022-10-27T11:21:02.430Z,22.90
2022-10-27T11:23:43.544Z,23.00
2022-10-27T11:26:11.949Z,23.00
2022-10-27T11:29:10.510Z,23.00
2022-10-27T11:31:41.322Z,23.10
2022-10-27T11:34:18.946Z,23.20
2022-10-27T11:36:51.644Z,23.30
2022-10-27T11:39:31.351Z,23.50
2022-10-27T11:42:17.229Z,23.60
2022-10-27T11:44:47.192Z,23.70
2022-10-27T11:47:19.730Z,23.90
2022-10-27T11:49:53.028Z,23.90
2022-10-27T11:52:25.825Z,24.10
2022-10-27T11:54:53.568Z,24.30
2022-10-27T11:57:39.462Z,24.40
2022-10-27T12:00:15.454Z,24.50
2022-10-27T12:03:01.084Z,24.60
2022-10-27T12:06:03.807Z,24.70
2022-10-27T12:08:59.054Z,24.90
2022-10-27T12:11:31.615Z,25.00
2022-10-27T12:14:16.917Z,25.10
2022-10-27T12:16:52.115Z,25.20
2022-10-27T12:19:29.960Z,25.20
2022-10-27T12:22:10.223Z,25.30
2022-10-27T12:24:58.263Z,25.40
2022-10-27T12:27:35.861Z,25.60
2022-10-27T12:30:10.343Z,25.70
2022-10-27T12:32:40.458Z,25.70
2022-10-27T12:35:25.016Z,25.80
2022-10-27T12:38:06.438Z,25.80
2022-10-27T12:40:39.130Z,25.80
2022-10-27T12:43:11.695Z,25.90
2022-10-27T12:46:03.438Z,26.00
2022-10-27T12:48:33.374Z,26.00
2022-10-27T12:51:02.901Z,26.10
2022-10-27T12:53:41.448Z,26.10
2022-10-27T12:56:24.003Z,26.20
2022-10-27T12:59:09.049Z,26.30
2022-10-27T13:02:09.997Z,26.30
2022-10-27T13:04:53.586Z,26.30
2022-10-27T13:07:26.268Z,26.40
2022-10-27T13:10:36.819Z,26.40
2022-10-27T13:13:43.886Z,26.40
2022-10-27T13:16:19.800Z,26.40
2022-10-27T13:19:01.415Z,26.50
2022-10-27T13:21:44.711Z,26.50
2022-10-27T13:24:35.362Z,26.50
2022-10-27T13:27:28.134Z,26.50
2022-10-27T13:30:01.052Z,26.50
2022-10-27T13:32:30.275Z,26.50
2022-10-27T13:35:02.820Z,26.40
2022-10-27T13:37:50.137Z,26.50
2022-10-27T13:40:38.390Z,26.40
2022-10-27T13:43:23.267Z,26.40
2022-10-27T13:45:55.016Z,26.40
2022-10-27T13:48:21.724Z,26.40
2022-10-27T13:53:23.036Z,26.30
2022-10-27T13:55:58.486Z,26.30
2022-10-27T13:58:50.111Z,26.10
2022-10-27T14:01:46.154Z,26.00
2022-10-27T14:04:25.322Z,25.90
2022-10-27T14:07:01.083Z,25.70
2022-10-27T14:09:34.013Z,25.60
2022-10-27T14:12:17.934Z,25.50
2022-10-27T14:14:49.748Z,25.30
2022-10-27T14:17:23.528Z,25.10
2022-10-27T14:20:07.341Z,25.00
2022-10-27T14:22:37.119Z,24.90
2022-10-27T14:25:17.673Z,24.80
2022-10-27T14:27:45.175Z,24.70
2022-10-27T14:30:19.122Z,24.60
2022-10-27T14:32:46.065Z,24.50
2022-10-27T14:35:30.985Z,24.40
2022-10-27T14:37:58.012Z,24.30
2022-10-27T14:40:39.439Z,24.20
2022-10-27T14:43:23.761Z,24.10
2022-10-27T14:45:57.905Z,24.00
2022-10-27T14:48:28.764Z,23.90
2022-10-27T14:50:57.186Z,23.80
2022-10-27T14:53:29.852Z,23.80
2022-10-27T14:56:04.059Z,23.70
2022-10-27T14:58:30.799Z,23.70
2022-10-27T15:00:57.492Z,23.60
2022-10-27T15:03:32.581Z,23.60
2022-10-27T15:05:59.937Z,23.60
2022-10-27T15:08:35.120Z,23.50
2022-10-27T15:11:06.728Z,23.40
2022-10-27T15:13:34.049Z,23.40
2022-10-27T15:16:07.790Z,23.40
2022-10-27T15:18:40.729Z,23.30
2022-10-27T15:21:12.813Z,23.20
2022-10-27T15:23:42.166Z,23.20
2022-10-27T15:26:35.536Z,23.10
2022-10-27T15:29:03.825Z,23.10
2022-10-27T15:31:40.023Z,23.00
2022-10-27T15:34:28.605Z,23.00
2022-10-27T15:37:14.105Z,22.90
2022-10-27T15:39:41.268Z,22.90
2022-10-27T15:42:37.008Z,22.80
2022-10-27T15:45:47.283Z,22.80
2022-10-27T15:48:25.920Z,22.70
2022-10-27T15:51:08.813Z,22.70
2022-10-27T15:53:38.612Z,22.60
2022-10-27T15:56:22.511Z,22.60
2022-10-27T15:59:15.723Z,22.50
2022-10-27T16:01:46.173Z,22.40
2022-10-27T16:04:30.217Z,22.30
2022-10-27T16:07:17.311Z,22.30
2022-10-27T16:09:45.684Z,22.20
2022-10-27T16:12:14.150Z,22.10
2022-10-27T16:14:48.550Z,22.10
2022-10-27T16:17:19.501Z,22.10
2022-10-27T16:19:46.469Z,22.00
2022-10-27T16:22:18.704Z,21.90
2022-10-27T16:24:45.837Z,21.90
2022-10-27T16:27:23.205Z,21.90
2022-10-27T16:29:58.696Z,21.80
2022-10-27T16:32:30.673Z,21.80
2022-10-27T16:34:58.227Z,21.80
2022-10-27T16:37:26.980Z,21.70
2022-10-27T16:39:53.900Z,21.70
2022-10-27T16:42:21.355Z,21.60
2022-10-27T16:47:23.263Z,21.50
2022-10-27T16:49:51.520Z,21.40
2022-10-27T16:52:18.256Z,21.40
2022-10-27T16:54:44.951Z,21.30
2022-10-27T16:57:11.816Z,21.20
2022-10-27T16:59:38.717Z,21.20
2022-10-27T17:02:05.452Z,21.20
2022-10-27T17:04:33.263Z,21.10
2022-10-27T17:07:00.091Z,21.20
2022-10-27T17:09:27.007Z,21.10
2022-10-27T17:11:53.807Z,21.10
2022-10-27T17:14:20.600Z,21.10
2022-10-27T17:16:49.615Z,21.00
2022-10-27T17:19:16.428Z,21.00
2022-10-27T17:21:43.145Z,21.00
2022-10-27T17:24:10.225Z,21.00
2022-10-27T17:26:37.009Z,20.90
2022-10-27T17:29:05.366Z,20.90
2022-10-27T17:31:32.412Z,20.90
2022-10-27T17:34:00.060Z,20.90
2022-10-27T17:36:28.648Z,20.80
2022-10-27T17:38:55.898Z,20.80
2022-10-27T17:41:22.730Z,20.80
2022-10-27T17:43:50.236Z,20.80
2022-10-27T17:46:18.231Z,20.70
2022-10-27T17:48:53.669Z,20.70
2022-10-27T17:51:23.411Z,20.60
2022-10-27T17:53:51.280Z,20.60
2022-10-27T17:56:21.595Z,20.60
2022-10-27T17:58:49.551Z,20.60
2022-10-27T18:01:21.747Z,20.60
2022-10-27T18:03:51.141Z,20.50
2022-10-27T18:06:23.662Z,20.50
2022-10-27T18:08:53.928Z,20.50
2022-10-27T18:11:23.386Z,20.50
2022-10-27T18:13:51.381Z,20.50
2022-10-27T18:39:08.143Z,20.10
2022-10-27T18:41:36.497Z,20.10
2022-10-27T18:44:04.483Z,20.00
2022-10-27T18:46:31.458Z,20.00
2022-10-27T18:49:00.082Z,20.00
2022-10-27T18:51:29.823Z,19.90
2022-10-27T18:53:59.630Z,19.90
2022-10-27T18:56:26.933Z,19.90
2022-10-27T18:58:55.573Z,19.90
2022-10-27T19:01:23.234Z,19.90
2022-10-27T19:03:53.160Z,19.90
2022-10-27T19:06:20.302Z,19.80
2022-10-27T19:08:47.023Z,19.80
2022-10-27T19:11:15.611Z,19.80
2022-10-27T19:13:42.720Z,19.70
2022-10-27T19:16:15.664Z,19.70
2022-10-27T19:18:43.102Z,19.70
2022-10-27T19:21:16.384Z,19.70
2022-10-27T19:23:44.371Z,19.60
2022-10-27T19:26:17.657Z,19.60
2022-10-27T19:28:46.284Z,19.60
2022-10-27T19:31:18.943Z,19.50
2022-10-27T19:33:46.758Z,19.60
2022-10-27T19:36:18.512Z,19.50
2022-10-27T19:38:45.504Z,19.50
2022-10-27T19:41:21.730Z,19.50
2022-10-27T19:43:51.038Z,19.50
2022-10-27T19:46:18.597Z,19.50
2022-10-27T19:48:57.069Z,19.50
2022-10-27T19:51:26.418Z,19.40
2022-10-27T19:53:56.744Z,19.40
2022-10-27T19:56:25.726Z,19.40
2022-10-27T19:58:54.598Z,19.40
2022-10-27T20:01:23.926Z,19.40
2022-10-27T20:03:51.508Z,19.40
2022-10-27T20:06:18.786Z,19.30
2022-10-27T20:08:46.296Z,19.30
2022-10-27T20:11:19.235Z,19.30
2022-10-27T20:13:48.367Z,19.20
2022-10-27T20:16:21.222Z,19.20
2022-10-27T20:18:48.331Z,19.20
2022-10-27T20:21:15.819Z,19.20
2022-10-27T20:23:44.315Z,19.20
2022-10-27T20:26:29.998Z,19.20
2022-10-27T20:28:58.813Z,19.10
2022-10-27T20:31:26.283Z,19.10
2022-10-27T20:33:53.317Z,19.10
2022-10-27T20:36:20.439Z,19.10
2022-10-27T20:38:47.316Z,19.10
2022-10-27T20:41:19.294Z,19.00
2022-10-27T20:43:46.105Z,19.00
2022-10-27T20:46:13.059Z,19.00
2022-10-27T20:48:40.767Z,19.00
2022-10-27T20:51:15.250Z,19.00
2022-10-27T20:53:42.670Z,19.00
2022-10-27T20:56:17.636Z,18.90
2022-10-27T20:58:45.309Z,18.90
2022-10-27T21:01:32.734Z,19.00
2022-10-27T21:04:02.904Z,18.90
2022-10-27T21:06:35.050Z,18.90
2022-10-27T21:09:04.680Z,18.90
2022-10-27T21:11:32.217Z,18.90
2022-10-27T21:14:00.900Z,18.90
2022-10-27T21:16:28.339Z,18.80
2022-10-27T21:18:57.016Z,18.90
2022-10-27T21:21:25.655Z,18.80
2022-10-27T21:23:53.027Z,18.90
2022-10-27T21:26:21.493Z,18.80
2022-10-27T21:28:52.649Z,18.80
2022-10-27T21:31:21.181Z,18.80
2022-10-27T21:33:48.145Z,18.80
2022-10-27T21:36:14.969Z,18.80
2022-10-27T21:38:46.908Z,18.80
2022-10-27T21:41:16.014Z,18.80
2022-10-27T21:43:45.105Z,18.80
2022-10-27T21:46:13.853Z,18.70
2022-10-27T21:48:40.903Z,18.80
2022-10-27T21:51:07.747Z,18.70
2022-10-27T21:53:34.556Z,18.70
2022-10-27T21:56:04.878Z,18.70
2022-10-27T21:58:32.980Z,18.70
2022-10-27T22:01:08.932Z,18.60
2022-10-27T22:03:36.217Z,18.60
2022-10-27T22:06:04.454Z,18.70
2022-10-27T22:08:31.923Z,18.60
2022-10-27T22:11:06.511Z,18.60
2022-10-27T22:13:33.949Z,18.50
2022-10-27T22:16:09.056Z,18.50
2022-10-27T22:18:36.046Z,18.50
2022-10-27T22:21:03.480Z,18.50
2022-10-27T22:23:30.460Z,18.40
2022-10-27T22:26:17.990Z,18.40
2022-10-27T22:28:45.969Z,18.40
2022-10-27T22:31:24.242Z,18.30
2022-10-27T22:33:51.608Z,18.30
2022-10-27T22:36:20.268Z,18.20
2022-10-27T22:38:51.193Z,18.20
2022-10-27T22:41:17.859Z,18.20
2022-10-27T22:43:44.766Z,18.20
2022-10-27T22:46:23.120Z,18.20
2022-10-27T22:48:50.116Z,18.20
2022-10-27T22:51:18.818Z,18.10
2022-10-27T22:53:46.141Z,18.10
2022-10-27T22:56:15.666Z,18.10
2022-10-27T22:58:43.269Z,18.10
2022-10-27T23:01:19.613Z,18.00
2022-10-27T23:03:50.199Z,18.00
2022-10-27T23:06:16.859Z,17.90
2022-10-27T23:08:43.518Z,17.90
2022-10-27T23:11:10.171Z,17.90
2022-10-27T23:13:37.927Z,17.90
2022-10-27T23:16:08.960Z,17.80
2022-10-27T23:18:37.559Z,17.80
2022-10-27T23:21:06.683Z,17.80
2022-10-27T23:23:34.264Z,17.80
2022-10-27T23:26:01.599Z,17.80
2022-10-27T23:28:29.023Z,17.80
2022-10-27T23:30:55.980Z,17.80
2022-10-27T23:33:22.844Z,17.80
2022-10-27T23:36:00.688Z,17.80
2022-10-27T23:38:28.639Z,17.80
2022-10-27T23:40:57.711Z,17.70
2022-10-27T23:43:26.932Z,17.70
2022-10-27T23:46:02.204Z,17.70
2022-10-27T23:48:30.726Z,17.70
2022-10-27T23:50:58.145Z,17.70
2022-10-27T23:53:25.755Z,17.70
2022-10-27T23:55:57.553Z,17.70
2022-10-27T23:58:24.431Z,17.60
